sensor_id;sensor_type;location;lat;lon;timestamp;P1;durP1;ratioP1;P2;durP2;ratioP2
2944;SDS011;1482;51.398;7.128;2024-03-07T00:00:11;111.43;;;46.77;;
2944;SDS011;1482;51.398;7.128;2024-03-07T00:02:51;121.83;;;49.77;;
2944;SDS011;1482;51.398;7.128;2024-03-07T00:05:17;123.43;;;49.10;;
2944;SDS011;1482;51.398;7.128;2024-03-07T00:07:44;103.10;;;46.97;;
2944;SDS011;1482;51.398;7.128;2024-03-07T00:10:10;90.57;;;46.90;;
2944;SDS011;1482;51.398;7.128;2024-03-07T00:12:36;135.57;;;50.30;;
2944;SDS011;1482;51.398;7.128;2024-03-07T00:15:09;110.33;;;47.93;;
2944;SDS011;1482;51.398;7.128;2024-03-07T00:17:36;126.70;;;48.70;;
2944;SDS011;1482;51.398;7.128;2024-03-07T00:20:03;124.20;;;51.30;;
2944;SDS011;1482;51.398;7.128;2024-03-07T00:22:29;131.03;;;48.83;;
2944;SDS011;1482;51.398;7.128;2024-03-07T00:24:56;101.37;;;47.87;;
2944;SDS011;1482;51.398;7.128;2024-03-07T00:27:22;140.80;;;48.37;;
2944;SDS011;1482;51.398;7.128;2024-03-07T00:29:48;124.00;;;49.53;;
2944;SDS011;1482;51.398;7.128;2024-03-07T00:32:21;127.10;;;51.43;;
2944;SDS011;1482;51.398;7.128;2024-03-07T00:34:47;146.33;;;51.43;;
2944;SDS011;1482;51.398;7.128;2024-03-07T00:37:13;125.37;;;54.17;;
2944;SDS011;1482;51.398;7.128;2024-03-07T00:39:39;144.33;;;52.23;;
2944;SDS011;1482;51.398;7.128;2024-03-07T00:42:05;145.60;;;54.83;;
2944;SDS011;1482;51.398;7.128;2024-03-07T00:44:31;143.50;;;56.73;;
2944;SDS011;1482;51.398;7.128;2024-03-07T00:46:56;161.67;;;53.13;;
2944;SDS011;1482;51.398;7.128;2024-03-07T00:49:22;174.97;;;57.63;;
2944;SDS011;1482;51.398;7.128;2024-03-07T00:51:48;155.77;;;59.60;;
2944;SDS011;1482;51.398;7.128;2024-03-07T00:54:14;138.50;;;54.60;;
2944;SDS011;1482;51.398;7.128;2024-03-07T00:56:39;154.60;;;57.90;;
2944;SDS011;1482;51.398;7.128;2024-03-07T00:59:05;159.57;;;55.33;;
2944;SDS011;1482;51.398;7.128;2024-03-07T01:01:31;143.00;;;52.93;;
2944;SDS011;1482;51.398;7.128;2024-03-07T01:03:58;246.60;;;65.47;;
2944;SDS011;1482;51.398;7.128;2024-03-07T01:06:27;177.93;;;56.10;;
2944;SDS011;1482;51.398;7.128;2024-03-07T01:08:53;161.03;;;60.30;;
2944;SDS011;1482;51.398;7.128;2024-03-07T01:11:19;160.67;;;57.70;;
2944;SDS011;1482;51.398;7.128;2024-03-07T01:13:45;172.23;;;57.90;;
2944;SDS011;1482;51.398;7.128;2024-03-07T01:16:10;229.80;;;61.80;;
2944;SDS011;1482;51.398;7.128;2024-03-07T01:18:37;402.33;;;69.77;;
2944;SDS011;1482;51.398;7.128;2024-03-07T01:21:03;327.13;;;68.03;;
2944;SDS011;1482;51.398;7.128;2024-03-07T01:23:30;210.03;;;64.77;;
2944;SDS011;1482;51.398;7.128;2024-03-07T01:25:56;501.03;;;80.07;;
2944;SDS011;1482;51.398;7.128;2024-03-07T01:28:23;427.87;;;78.30;;
2944;SDS011;1482;51.398;7.128;2024-03-07T01:30:50;453.83;;;70.40;;
2944;SDS011;1482;51.398;7.128;2024-03-07T01:33:16;237.60;;;60.87;;
2944;SDS011;1482;51.398;7.128;2024-03-07T01:35:41;520.37;;;87.87;;
2944;SDS011;1482;51.398;7.128;2024-03-07T01:38:07;357.20;;;63.77;;
2944;SDS011;1482;51.398;7.128;2024-03-07T01:40:33;208.07;;;55.77;;
2944;SDS011;1482;51.398;7.128;2024-03-07T01:43:01;493.20;;;77.87;;
2944;SDS011;1482;51.398;7.128;2024-03-07T01:45:26;510.03;;;84.67;;
2944;SDS011;1482;51.398;7.128;2024-03-07T01:47:52;614.73;;;95.13;;
2944;SDS011;1482;51.398;7.128;2024-03-07T01:50:18;495.80;;;77.17;;
2944;SDS011;1482;51.398;7.128;2024-03-07T01:52:43;518.67;;;79.70;;
2944;SDS011;1482;51.398;7.128;2024-03-07T01:55:10;358.70;;;72.10;;
2944;SDS011;1482;51.398;7.128;2024-03-07T01:57:38;479.57;;;76.23;;
2944;SDS011;1482;51.398;7.128;2024-03-07T02:00:04;349.70;;;60.17;;
2944;SDS011;1482;51.398;7.128;2024-03-07T02:02:31;293.43;;;61.03;;
2944;SDS011;1482;51.398;7.128;2024-03-07T02:04:57;333.57;;;65.67;;
2944;SDS011;1482;51.398;7.128;2024-03-07T02:07:23;600.10;;;85.63;;
2944;SDS011;1482;51.398;7.128;2024-03-07T02:09:48;543.50;;;77.40;;
2944;SDS011;1482;51.398;7.128;2024-03-07T02:12:17;693.67;;;99.63;;
2944;SDS011;1482;51.398;7.128;2024-03-07T02:14:42;585.20;;;89.40;;
2944;SDS011;1482;51.398;7.128;2024-03-07T02:17:07;284.80;;;58.47;;
2944;SDS011;1482;51.398;7.128;2024-03-07T02:19:33;401.23;;;65.67;;
2944;SDS011;1482;51.398;7.128;2024-03-07T02:21:58;390.50;;;63.60;;
2944;SDS011;1482;51.398;7.128;2024-03-07T02:24:24;600.00;;;87.90;;
2944;SDS011;1482;51.398;7.128;2024-03-07T02:26:50;383.73;;;65.80;;
2944;SDS011;1482;51.398;7.128;2024-03-07T02:29:15;501.03;;;63.70;;
2944;SDS011;1482;51.398;7.128;2024-03-07T02:31:41;512.10;;;67.70;;
2944;SDS011;1482;51.398;7.128;2024-03-07T02:34:07;553.63;;;84.30;;
2944;SDS011;1482;51.398;7.128;2024-03-07T02:36:33;463.90;;;63.30;;
2944;SDS011;1482;51.398;7.128;2024-03-07T02:38:59;537.63;;;87.63;;
2944;SDS011;1482;51.398;7.128;2024-03-07T02:41:25;470.43;;;69.63;;
2944;SDS011;1482;51.398;7.128;2024-03-07T02:43:51;320.07;;;62.73;;
2944;SDS011;1482;51.398;7.128;2024-03-07T02:46:17;375.47;;;61.67;;
2944;SDS011;1482;51.398;7.128;2024-03-07T02:48:42;448.67;;;67.30;;
2944;SDS011;1482;51.398;7.128;2024-03-07T02:51:08;365.43;;;63.30;;
2944;SDS011;1482;51.398;7.128;2024-03-07T02:53:34;458.13;;;68.97;;
2944;SDS011;1482;51.398;7.128;2024-03-07T02:56:00;490.33;;;71.07;;
2944;SDS011;1482;51.398;7.128;2024-03-07T02:58:25;499.07;;;72.27;;
2944;SDS011;1482;51.398;7.128;2024-03-07T03:01:00;392.83;;;71.60;;
2944;SDS011;1482;51.398;7.128;2024-03-07T03:03:26;638.77;;;83.07;;
2944;SDS011;1482;51.398;7.128;2024-03-07T03:05:52;557.90;;;75.90;;
2944;SDS011;1482;51.398;7.128;2024-03-07T03:08:17;495.10;;;66.80;;
2944;SDS011;1482;51.398;7.128;2024-03-07T03:10:43;416.37;;;60.47;;
2944;SDS011;1482;51.398;7.128;2024-03-07T03:13:09;563.37;;;78.20;;
2944;SDS011;1482;51.398;7.128;2024-03-07T03:15:35;297.40;;;54.33;;
2944;SDS011;1482;51.398;7.128;2024-03-07T03:18:03;430.17;;;67.80;;
2944;SDS011;1482;51.398;7.128;2024-03-07T03:20:30;526.27;;;74.13;;
2944;SDS011;1482;51.398;7.128;2024-03-07T03:22:59;636.83;;;77.00;;
2944;SDS011;1482;51.398;7.128;2024-03-07T03:25:25;515.30;;;69.80;;
2944;SDS011;1482;51.398;7.128;2024-03-07T03:27:54;395.97;;;61.03;;
2944;SDS011;1482;51.398;7.128;2024-03-07T03:30:20;304.83;;;55.17;;
2944;SDS011;1482;51.398;7.128;2024-03-07T03:32:46;350.77;;;57.27;;
2944;SDS011;1482;51.398;7.128;2024-03-07T03:35:13;458.83;;;70.90;;
2944;SDS011;1482;51.398;7.128;2024-03-07T03:37:42;585.90;;;80.93;;
2944;SDS011;1482;51.398;7.128;2024-03-07T03:40:08;556.07;;;75.83;;
2944;SDS011;1482;51.398;7.128;2024-03-07T03:42:35;559.57;;;80.20;;
2944;SDS011;1482;51.398;7.128;2024-03-07T03:45:04;436.17;;;60.57;;
2944;SDS011;1482;51.398;7.128;2024-03-07T03:47:37;390.37;;;59.50;;
2944;SDS011;1482;51.398;7.128;2024-03-07T03:50:03;597.40;;;73.50;;
2944;SDS011;1482;51.398;7.128;2024-03-07T03:52:30;521.67;;;83.73;;
2944;SDS011;1482;51.398;7.128;2024-03-07T03:54:56;591.10;;;76.90;;
2944;SDS011;1482;51.398;7.128;2024-03-07T03:57:23;456.80;;;61.50;;
2944;SDS011;1482;51.398;7.128;2024-03-07T03:59:48;440.10;;;71.93;;
2944;SDS011;1482;51.398;7.128;2024-03-07T04:02:14;445.50;;;71.27;;
2944;SDS011;1482;51.398;7.128;2024-03-07T04:04:39;355.03;;;58.47;;
2944;SDS011;1482;51.398;7.128;2024-03-07T04:07:05;400.43;;;56.70;;
2944;SDS011;1482;51.398;7.128;2024-03-07T04:09:31;560.97;;;76.93;;
2944;SDS011;1482;51.398;7.128;2024-03-07T04:11:56;302.70;;;59.80;;
2944;SDS011;1482;51.398;7.128;2024-03-07T04:14:24;449.30;;;65.33;;
2944;SDS011;1482;51.398;7.128;2024-03-07T04:16:49;368.03;;;58.67;;
2944;SDS011;1482;51.398;7.128;2024-03-07T04:19:15;372.20;;;58.10;;
2944;SDS011;1482;51.398;7.128;2024-03-07T04:21:42;402.73;;;61.37;;
2944;SDS011;1482;51.398;7.128;2024-03-07T04:24:07;520.63;;;73.40;;
2944;SDS011;1482;51.398;7.128;2024-03-07T04:26:33;455.50;;;67.87;;
2944;SDS011;1482;51.398;7.128;2024-03-07T04:28:58;498.43;;;73.73;;
2944;SDS011;1482;51.398;7.128;2024-03-07T04:31:24;395.23;;;65.43;;
2944;SDS011;1482;51.398;7.128;2024-03-07T04:33:49;497.07;;;68.20;;
2944;SDS011;1482;51.398;7.128;2024-03-07T04:36:15;397.97;;;64.43;;
2944;SDS011;1482;51.398;7.128;2024-03-07T04:38:42;452.40;;;67.73;;
2944;SDS011;1482;51.398;7.128;2024-03-07T04:41:13;505.83;;;80.27;;
2944;SDS011;1482;51.398;7.128;2024-03-07T04:43:40;466.33;;;71.50;;
2944;SDS011;1482;51.398;7.128;2024-03-07T04:46:07;583.90;;;91.30;;
2944;SDS011;1482;51.398;7.128;2024-03-07T04:48:33;598.73;;;90.07;;
2944;SDS011;1482;51.398;7.128;2024-03-07T04:50:58;536.40;;;74.87;;
2944;SDS011;1482;51.398;7.128;2024-03-07T04:53:24;696.80;;;95.47;;
2944;SDS011;1482;51.398;7.128;2024-03-07T04:55:49;715.67;;;88.97;;
2944;SDS011;1482;51.398;7.128;2024-03-07T04:58:16;365.53;;;56.97;;
2944;SDS011;1482;51.398;7.128;2024-03-07T05:00:42;593.47;;;79.77;;
2944;SDS011;1482;51.398;7.128;2024-03-07T05:03:08;255.63;;;54.20;;
2944;SDS011;1482;51.398;7.128;2024-03-07T05:05:34;582.77;;;86.00;;
2944;SDS011;1482;51.398;7.128;2024-03-07T05:08:00;557.67;;;79.00;;
2944;SDS011;1482;51.398;7.128;2024-03-07T05:10:25;407.80;;;66.37;;
2944;SDS011;1482;51.398;7.128;2024-03-07T05:12:54;714.33;;;107.77;;
2944;SDS011;1482;51.398;7.128;2024-03-07T05:15:20;665.90;;;105.03;;
2944;SDS011;1482;51.398;7.128;2024-03-07T05:17:46;662.63;;;87.87;;
2944;SDS011;1482;51.398;7.128;2024-03-07T05:20:11;459.03;;;72.40;;
2944;SDS011;1482;51.398;7.128;2024-03-07T05:22:37;669.10;;;89.37;;
2944;SDS011;1482;51.398;7.128;2024-03-07T05:25:09;550.40;;;81.50;;
2944;SDS011;1482;51.398;7.128;2024-03-07T05:27:35;544.47;;;85.60;;
2944;SDS011;1482;51.398;7.128;2024-03-07T05:30:01;505.93;;;77.27;;
2944;SDS011;1482;51.398;7.128;2024-03-07T05:32:31;123.60;;;48.50;;
2944;SDS011;1482;51.398;7.128;2024-03-07T05:34:59;119.07;;;44.43;;
2944;SDS011;1482;51.398;7.128;2024-03-07T05:37:24;183.10;;;49.40;;
2944;SDS011;1482;51.398;7.128;2024-03-07T05:39:50;115.97;;;45.97;;
2944;SDS011;1482;51.398;7.128;2024-03-07T05:42:17;119.17;;;47.73;;
2944;SDS011;1482;51.398;7.128;2024-03-07T05:44:43;113.53;;;46.50;;
2944;SDS011;1482;51.398;7.128;2024-03-07T05:47:09;387.57;;;61.87;;
2944;SDS011;1482;51.398;7.128;2024-03-07T05:49:35;112.87;;;47.43;;
2944;SDS011;1482;51.398;7.128;2024-03-07T05:52:02;119.60;;;49.80;;
2944;SDS011;1482;51.398;7.128;2024-03-07T05:54:28;137.60;;;48.77;;
2944;SDS011;1482;51.398;7.128;2024-03-07T05:56:54;445.43;;;72.53;;
2944;SDS011;1482;51.398;7.128;2024-03-07T05:59:20;224.77;;;54.83;;
2944;SDS011;1482;51.398;7.128;2024-03-07T06:01:46;205.87;;;54.70;;
2944;SDS011;1482;51.398;7.128;2024-03-07T06:04:12;546.40;;;81.10;;
2944;SDS011;1482;51.398;7.128;2024-03-07T06:06:37;186.23;;;48.23;;
2944;SDS011;1482;51.398;7.128;2024-03-07T06:09:04;118.50;;;46.70;;
2944;SDS011;1482;51.398;7.128;2024-03-07T06:11:36;123.83;;;45.20;;
2944;SDS011;1482;51.398;7.128;2024-03-07T06:14:03;126.30;;;46.17;;
2944;SDS011;1482;51.398;7.128;2024-03-07T06:16:30;144.47;;;48.20;;
2944;SDS011;1482;51.398;7.128;2024-03-07T06:18:58;139.43;;;48.20;;
2944;SDS011;1482;51.398;7.128;2024-03-07T06:21:27;195.77;;;51.80;;
2944;SDS011;1482;51.398;7.128;2024-03-07T06:23:54;315.53;;;57.73;;
2944;SDS011;1482;51.398;7.128;2024-03-07T06:26:26;399.63;;;63.17;;
2944;SDS011;1482;51.398;7.128;2024-03-07T06:29:05;256.63;;;56.00;;
2944;SDS011;1482;51.398;7.128;2024-03-07T06:31:31;122.00;;;46.70;;
2944;SDS011;1482;51.398;7.128;2024-03-07T06:33:57;177.67;;;49.47;;
2944;SDS011;1482;51.398;7.128;2024-03-07T06:36:23;115.30;;;46.07;;
2944;SDS011;1482;51.398;7.128;2024-03-07T06:38:50;135.30;;;49.30;;
2944;SDS011;1482;51.398;7.128;2024-03-07T06:41:16;110.83;;;45.80;;
2944;SDS011;1482;51.398;7.128;2024-03-07T06:43:43;106.50;;;43.13;;
2944;SDS011;1482;51.398;7.128;2024-03-07T06:46:09;104.13;;;47.00;;
2944;SDS011;1482;51.398;7.128;2024-03-07T06:48:35;114.87;;;49.53;;
2944;SDS011;1482;51.398;7.128;2024-03-07T06:51:01;119.20;;;45.93;;
2944;SDS011;1482;51.398;7.128;2024-03-07T06:53:26;123.47;;;47.60;;
2944;SDS011;1482;51.398;7.128;2024-03-07T06:55:53;112.67;;;47.80;;
2944;SDS011;1482;51.398;7.128;2024-03-07T06:58:19;99.37;;;43.30;;
2944;SDS011;1482;51.398;7.128;2024-03-07T07:00:45;90.80;;;44.03;;
2944;SDS011;1482;51.398;7.128;2024-03-07T07:03:11;94.07;;;46.17;;
2944;SDS011;1482;51.398;7.128;2024-03-07T07:05:39;93.17;;;42.63;;
2944;SDS011;1482;51.398;7.128;2024-03-07T07:08:06;80.67;;;41.43;;
2944;SDS011;1482;51.398;7.128;2024-03-07T07:10:32;97.87;;;45.50;;
2944;SDS011;1482;51.398;7.128;2024-03-07T07:12:57;79.97;;;39.67;;
2944;SDS011;1482;51.398;7.128;2024-03-07T07:15:23;85.33;;;41.60;;
2944;SDS011;1482;51.398;7.128;2024-03-07T07:17:49;75.30;;;37.40;;
2944;SDS011;1482;51.398;7.128;2024-03-07T07:20:15;73.03;;;38.90;;
2944;SDS011;1482;51.398;7.128;2024-03-07T07:22:42;91.23;;;41.17;;
2944;SDS011;1482;51.398;7.128;2024-03-07T07:25:08;81.17;;;40.53;;
2944;SDS011;1482;51.398;7.128;2024-03-07T07:27:39;70.17;;;37.83;;
2944;SDS011;1482;51.398;7.128;2024-03-07T07:30:07;66.10;;;36.70;;
2944;SDS011;1482;51.398;7.128;2024-03-07T07:32:33;69.97;;;37.37;;
2944;SDS011;1482;51.398;7.128;2024-03-07T07:35:00;73.27;;;40.13;;
2944;SDS011;1482;51.398;7.128;2024-03-07T07:37:26;71.53;;;37.10;;
2944;SDS011;1482;51.398;7.128;2024-03-07T07:39:52;67.80;;;36.30;;
2944;SDS011;1482;51.398;7.128;2024-03-07T07:42:17;72.83;;;38.20;;
2944;SDS011;1482;51.398;7.128;2024-03-07T07:44:43;69.97;;;38.00;;
2944;SDS011;1482;51.398;7.128;2024-03-07T07:47:08;65.57;;;36.20;;
2944;SDS011;1482;51.398;7.128;2024-03-07T07:49:36;70.37;;;38.57;;
2944;SDS011;1482;51.398;7.128;2024-03-07T07:52:05;61.40;;;36.43;;
2944;SDS011;1482;51.398;7.128;2024-03-07T07:54:31;54.70;;;34.60;;
2944;SDS011;1482;51.398;7.128;2024-03-07T07:57:00;55.83;;;32.93;;
2944;SDS011;1482;51.398;7.128;2024-03-07T07:59:25;55.10;;;33.03;;
2944;SDS011;1482;51.398;7.128;2024-03-07T08:01:51;50.60;;;31.60;;
2944;SDS011;1482;51.398;7.128;2024-03-07T08:04:18;47.53;;;30.30;;
2944;SDS011;1482;51.398;7.128;2024-03-07T08:06:43;51.30;;;32.70;;
2944;SDS011;1482;51.398;7.128;2024-03-07T08:09:09;41.73;;;28.43;;
2944;SDS011;1482;51.398;7.128;2024-03-07T08:11:35;37.97;;;28.70;;
2944;SDS011;1482;51.398;7.128;2024-03-07T08:14:02;35.60;;;25.53;;
2944;SDS011;1482;51.398;7.128;2024-03-07T08:16:27;37.07;;;26.07;;
2944;SDS011;1482;51.398;7.128;2024-03-07T08:18:53;36.73;;;26.50;;
2944;SDS011;1482;51.398;7.128;2024-03-07T08:21:20;32.93;;;27.43;;
2944;SDS011;1482;51.398;7.128;2024-03-07T08:23:48;32.73;;;28.40;;
2944;SDS011;1482;51.398;7.128;2024-03-07T08:26:13;30.90;;;27.27;;
2944;SDS011;1482;51.398;7.128;2024-03-07T08:28:40;29.30;;;25.80;;
2944;SDS011;1482;51.398;7.128;2024-03-07T08:31:06;31.57;;;27.37;;
2944;SDS011;1482;51.398;7.128;2024-03-07T08:33:32;28.13;;;25.13;;
2944;SDS011;1482;51.398;7.128;2024-03-07T08:35:58;27.90;;;24.97;;
2944;SDS011;1482;51.398;7.128;2024-03-07T08:38:24;31.00;;;25.00;;
2944;SDS011;1482;51.398;7.128;2024-03-07T08:40:50;30.67;;;27.57;;
2944;SDS011;1482;51.398;7.128;2024-03-07T08:43:15;28.60;;;25.70;;
2944;SDS011;1482;51.398;7.128;2024-03-07T08:45:43;29.13;;;25.87;;
2944;SDS011;1482;51.398;7.128;2024-03-07T08:48:12;29.10;;;25.00;;
2944;SDS011;1482;51.398;7.128;2024-03-07T08:50:38;29.03;;;23.70;;
2944;SDS011;1482;51.398;7.128;2024-03-07T08:53:04;31.60;;;25.30;;
2944;SDS011;1482;51.398;7.128;2024-03-07T08:55:29;31.97;;;26.67;;
2944;SDS011;1482;51.398;7.128;2024-03-07T08:57:55;33.80;;;26.60;;
2944;SDS011;1482;51.398;7.128;2024-03-07T09:00:21;33.00;;;26.47;;
2944;SDS011;1482;51.398;7.128;2024-03-07T09:02:47;33.63;;;26.33;;
2944;SDS011;1482;51.398;7.128;2024-03-07T09:05:20;39.70;;;27.87;;
2944;SDS011;1482;51.398;7.128;2024-03-07T09:07:50;38.83;;;25.87;;
2944;SDS011;1482;51.398;7.128;2024-03-07T09:10:16;39.67;;;25.87;;
2944;SDS011;1482;51.398;7.128;2024-03-07T09:12:43;43.87;;;26.97;;
2944;SDS011;1482;51.398;7.128;2024-03-07T09:15:09;37.83;;;26.27;;
2944;SDS011;1482;51.398;7.128;2024-03-07T09:17:35;35.60;;;23.47;;
2944;SDS011;1482;51.398;7.128;2024-03-07T09:20:02;42.00;;;25.07;;
2944;SDS011;1482;51.398;7.128;2024-03-07T09:22:30;38.30;;;24.80;;
2944;SDS011;1482;51.398;7.128;2024-03-07T09:24:56;36.13;;;24.40;;
2944;SDS011;1482;51.398;7.128;2024-03-07T09:27:22;36.60;;;24.70;;
2944;SDS011;1482;51.398;7.128;2024-03-07T09:29:47;37.23;;;24.20;;
2944;SDS011;1482;51.398;7.128;2024-03-07T09:32:13;44.77;;;23.60;;
2944;SDS011;1482;51.398;7.128;2024-03-07T09:34:39;38.17;;;25.13;;
2944;SDS011;1482;51.398;7.128;2024-03-07T09:37:05;36.30;;;24.37;;
2944;SDS011;1482;51.398;7.128;2024-03-07T09:39:34;37.60;;;24.23;;
2944;SDS011;1482;51.398;7.128;2024-03-07T09:42:04;42.57;;;25.37;;
2944;SDS011;1482;51.398;7.128;2024-03-07T09:44:36;36.87;;;23.83;;
2944;SDS011;1482;51.398;7.128;2024-03-07T09:47:04;38.53;;;24.70;;
2944;SDS011;1482;51.398;7.128;2024-03-07T09:49:30;32.10;;;22.23;;
2944;SDS011;1482;51.398;7.128;2024-03-07T09:52:00;35.83;;;23.00;;
2944;SDS011;1482;51.398;7.128;2024-03-07T09:54:29;38.70;;;24.43;;
2944;SDS011;1482;51.398;7.128;2024-03-07T09:56:54;29.00;;;20.57;;
2944;SDS011;1482;51.398;7.128;2024-03-07T09:59:27;29.83;;;22.63;;
2944;SDS011;1482;51.398;7.128;2024-03-07T10:01:56;28.37;;;19.30;;
2944;SDS011;1482;51.398;7.128;2024-03-07T10:04:29;35.13;;;21.17;;
2944;SDS011;1482;51.398;7.128;2024-03-07T10:07:00;30.70;;;20.93;;
2944;SDS011;1482;51.398;7.128;2024-03-07T10:09:26;28.10;;;20.87;;
2944;SDS011;1482;51.398;7.128;2024-03-07T10:11:56;32.67;;;21.00;;
2944;SDS011;1482;51.398;7.128;2024-03-07T10:14:24;26.77;;;18.67;;
2944;SDS011;1482;51.398;7.128;2024-03-07T10:16:50;24.27;;;18.77;;
2944;SDS011;1482;51.398;7.128;2024-03-07T10:19:18;27.70;;;19.87;;
2944;SDS011;1482;51.398;7.128;2024-03-07T10:21:44;29.17;;;19.73;;
2944;SDS011;1482;51.398;7.128;2024-03-07T10:24:09;28.80;;;19.53;;
2944;SDS011;1482;51.398;7.128;2024-03-07T10:26:39;28.43;;;19.17;;
2944;SDS011;1482;51.398;7.128;2024-03-07T10:29:05;26.63;;;20.13;;
2944;SDS011;1482;51.398;7.128;2024-03-07T10:31:34;30.80;;;19.83;;
2944;SDS011;1482;51.398;7.128;2024-03-07T10:34:02;28.57;;;20.07;;
2944;SDS011;1482;51.398;7.128;2024-03-07T10:36:33;27.60;;;20.00;;
2944;SDS011;1482;51.398;7.128;2024-03-07T10:38:59;26.50;;;19.10;;
2944;SDS011;1482;51.398;7.128;2024-03-07T10:41:29;27.27;;;19.13;;
2944;SDS011;1482;51.398;7.128;2024-03-07T10:44:01;23.60;;;18.23;;
2944;SDS011;1482;51.398;7.128;2024-03-07T10:46:29;27.10;;;18.70;;
2944;SDS011;1482;51.398;7.128;2024-03-07T10:48:55;24.70;;;18.50;;
2944;SDS011;1482;51.398;7.128;2024-03-07T10:51:39;24.97;;;19.50;;
2944;SDS011;1482;51.398;7.128;2024-03-07T10:56:55;24.90;;;18.60;;
2944;SDS011;1482;51.398;7.128;2024-03-07T10:59:45;26.53;;;19.23;;
2944;SDS011;1482;51.398;7.128;2024-03-07T11:02:15;25.30;;;20.07;;
2944;SDS011;1482;51.398;7.128;2024-03-07T11:04:58;30.57;;;19.73;;
2944;SDS011;1482;51.398;7.128;2024-03-07T11:07:25;25.40;;;18.47;;
2944;SDS011;1482;51.398;7.128;2024-03-07T11:09:52;26.77;;;18.77;;
2944;SDS011;1482;51.398;7.128;2024-03-07T11:12:21;26.13;;;18.80;;
2944;SDS011;1482;51.398;7.128;2024-03-07T11:14:49;26.20;;;19.50;;
2944;SDS011;1482;51.398;7.128;2024-03-07T11:17:16;24.80;;;18.80;;
2944;SDS011;1482;51.398;7.128;2024-03-07T11:19:44;26.23;;;18.60;;
2944;SDS011;1482;51.398;7.128;2024-03-07T11:22:13;23.27;;;18.10;;
2944;SDS011;1482;51.398;7.128;2024-03-07T11:25:00;26.20;;;18.17;;
2944;SDS011;1482;51.398;7.128;2024-03-07T11:27:38;24.53;;;18.20;;
2944;SDS011;1482;51.398;7.128;2024-03-07T11:30:04;27.73;;;19.30;;
2944;SDS011;1482;51.398;7.128;2024-03-07T11:32:34;21.93;;;17.57;;
2944;SDS011;1482;51.398;7.128;2024-03-07T11:35:03;23.60;;;18.60;;
2944;SDS011;1482;51.398;7.128;2024-03-07T11:37:45;29.10;;;19.00;;
2944;SDS011;1482;51.398;7.128;2024-03-07T11:42:48;25.70;;;18.20;;
2944;SDS011;1482;51.398;7.128;2024-03-07T11:45:14;31.10;;;18.63;;
2944;SDS011;1482;51.398;7.128;2024-03-07T11:47:49;30.70;;;18.60;;
2944;SDS011;1482;51.398;7.128;2024-03-07T11:50:25;25.17;;;17.90;;
2944;SDS011;1482;51.398;7.128;2024-03-07T11:52:54;26.57;;;19.00;;
2944;SDS011;1482;51.398;7.128;2024-03-07T11:55:21;22.90;;;18.17;;
2944;SDS011;1482;51.398;7.128;2024-03-07T11:57:48;21.63;;;17.00;;
2944;SDS011;1482;51.398;7.128;2024-03-07T12:00:15;23.43;;;16.83;;
2944;SDS011;1482;51.398;7.128;2024-03-07T12:02:43;23.37;;;18.17;;
2944;SDS011;1482;51.398;7.128;2024-03-07T12:05:09;22.67;;;18.70;;
2944;SDS011;1482;51.398;7.128;2024-03-07T12:07:35;26.20;;;20.37;;
2944;SDS011;1482;51.398;7.128;2024-03-07T12:10:02;25.27;;;20.53;;
2944;SDS011;1482;51.398;7.128;2024-03-07T12:12:29;26.33;;;20.03;;
2944;SDS011;1482;51.398;7.128;2024-03-07T12:14:54;28.67;;;18.43;;
2944;SDS011;1482;51.398;7.128;2024-03-07T12:17:20;24.70;;;17.10;;
2944;SDS011;1482;51.398;7.128;2024-03-07T12:19:47;24.63;;;17.17;;
2944;SDS011;1482;51.398;7.128;2024-03-07T12:22:16;22.67;;;18.30;;
2944;SDS011;1482;51.398;7.128;2024-03-07T12:24:47;26.00;;;18.13;;
2944;SDS011;1482;51.398;7.128;2024-03-07T12:27:25;24.63;;;19.43;;
2944;SDS011;1482;51.398;7.128;2024-03-07T12:29:52;22.67;;;17.53;;
2944;SDS011;1482;51.398;7.128;2024-03-07T12:32:18;25.63;;;19.00;;
2944;SDS011;1482;51.398;7.128;2024-03-07T12:34:44;24.40;;;19.80;;
2944;SDS011;1482;51.398;7.128;2024-03-07T12:37:11;23.73;;;18.53;;
2944;SDS011;1482;51.398;7.128;2024-03-07T12:39:41;27.33;;;20.37;;
2944;SDS011;1482;51.398;7.128;2024-03-07T12:42:14;24.30;;;17.37;;
2944;SDS011;1482;51.398;7.128;2024-03-07T12:44:46;23.03;;;17.30;;
2944;SDS011;1482;51.398;7.128;2024-03-07T12:47:12;21.37;;;17.33;;
2944;SDS011;1482;51.398;7.128;2024-03-07T12:49:41;31.50;;;20.73;;
2944;SDS011;1482;51.398;7.128;2024-03-07T12:52:10;24.40;;;19.73;;
2944;SDS011;1482;51.398;7.128;2024-03-07T12:54:42;22.37;;;16.40;;
2944;SDS011;1482;51.398;7.128;2024-03-07T12:57:08;24.93;;;15.57;;
2944;SDS011;1482;51.398;7.128;2024-03-07T12:59:35;22.40;;;16.17;;
2944;SDS011;1482;51.398;7.128;2024-03-07T13:02:03;19.70;;;15.73;;
2944;SDS011;1482;51.398;7.128;2024-03-07T13:04:31;23.60;;;17.33;;
2944;SDS011;1482;51.398;7.128;2024-03-07T13:06:57;22.43;;;17.67;;
2944;SDS011;1482;51.398;7.128;2024-03-07T13:09:24;26.90;;;18.20;;
2944;SDS011;1482;51.398;7.128;2024-03-07T13:11:52;24.40;;;16.93;;
2944;SDS011;1482;51.398;7.128;2024-03-07T13:14:18;22.60;;;16.70;;
2944;SDS011;1482;51.398;7.128;2024-03-07T13:16:44;21.27;;;17.77;;
2944;SDS011;1482;51.398;7.128;2024-03-07T13:19:10;24.33;;;16.60;;
2944;SDS011;1482;51.398;7.128;2024-03-07T13:21:36;22.50;;;17.70;;
2944;SDS011;1482;51.398;7.128;2024-03-07T13:24:06;26.73;;;16.87;;
2944;SDS011;1482;51.398;7.128;2024-03-07T13:26:33;23.60;;;15.43;;
2944;SDS011;1482;51.398;7.128;2024-03-07T13:28:59;20.73;;;14.93;;
2944;SDS011;1482;51.398;7.128;2024-03-07T13:31:26;21.53;;;15.17;;
2944;SDS011;1482;51.398;7.128;2024-03-07T13:33:55;21.50;;;15.10;;
2944;SDS011;1482;51.398;7.128;2024-03-07T13:36:21;19.90;;;14.90;;
2944;SDS011;1482;51.398;7.128;2024-03-07T13:38:50;22.60;;;17.30;;
2944;SDS011;1482;51.398;7.128;2024-03-07T13:41:20;21.20;;;14.83;;
2944;SDS011;1482;51.398;7.128;2024-03-07T13:43:47;20.67;;;15.60;;
2944;SDS011;1482;51.398;7.128;2024-03-07T13:46:13;23.57;;;14.67;;
2944;SDS011;1482;51.398;7.128;2024-03-07T13:48:43;20.57;;;15.07;;
2944;SDS011;1482;51.398;7.128;2024-03-07T13:51:09;18.87;;;13.83;;
2944;SDS011;1482;51.398;7.128;2024-03-07T13:53:39;26.17;;;14.73;;
2944;SDS011;1482;51.398;7.128;2024-03-07T13:56:41;15.60;;;12.90;;
2944;SDS011;1482;51.398;7.128;2024-03-07T13:59:21;15.57;;;10.57;;
2944;SDS011;1482;51.398;7.128;2024-03-07T14:05:15;21.60;;;13.03;;
2944;SDS011;1482;51.398;7.128;2024-03-07T14:08:22;17.27;;;12.50;;
2944;SDS011;1482;51.398;7.128;2024-03-07T14:14:32;19.23;;;11.80;;
2944;SDS011;1482;51.398;7.128;2024-03-07T14:28:52;11.97;;;9.30;;
2944;SDS011;1482;51.398;7.128;2024-03-07T14:31:37;11.33;;;9.03;;
2944;SDS011;1482;51.398;7.128;2024-03-07T14:36:45;10.93;;;9.03;;
2944;SDS011;1482;51.398;7.128;2024-03-07T14:39:15;12.63;;;8.10;;
2944;SDS011;1482;51.398;7.128;2024-03-07T14:41:51;14.13;;;8.20;;
2944;SDS011;1482;51.398;7.128;2024-03-07T14:44:21;13.90;;;9.90;;
2944;SDS011;1482;51.398;7.128;2024-03-07T14:46:48;12.53;;;8.43;;
2944;SDS011;1482;51.398;7.128;2024-03-07T14:49:24;10.90;;;8.33;;
2944;SDS011;1482;51.398;7.128;2024-03-07T14:51:50;11.87;;;8.83;;
2944;SDS011;1482;51.398;7.128;2024-03-07T14:54:18;13.27;;;8.23;;
2944;SDS011;1482;51.398;7.128;2024-03-07T14:56:47;12.20;;;9.00;;
2944;SDS011;1482;51.398;7.128;2024-03-07T14:59:12;10.63;;;7.80;;
2944;SDS011;1482;51.398;7.128;2024-03-07T15:01:38;13.90;;;9.23;;
2944;SDS011;1482;51.398;7.128;2024-03-07T15:04:04;11.60;;;8.80;;
2944;SDS011;1482;51.398;7.128;2024-03-07T15:06:36;11.70;;;8.87;;
2944;SDS011;1482;51.398;7.128;2024-03-07T15:09:03;10.63;;;8.30;;
2944;SDS011;1482;51.398;7.128;2024-03-07T15:11:34;12.30;;;9.13;;